BIO weather

Bilbao Airport
Bilbao, Basque Country, Spain

Public forecast

Using degrees Celsius for public forecast. Weather courtesy of forecast.io.

Current aviation weather report (METAR) for Bilbao Airport

Retrieved 2019/12/12 08:30 UTC (0 seconds ago):

LEBB 120830Z 22014KT 190V250 9999 BKN047 10/06 Q1015 NOSIG

Aviation forecast (TAF) for Bilbao Airport

Retrieved 2019/12/12 06:27 UTC (2 hours ago):

TAF LEBB 120500Z 1206/1306 22009KT 9999 BKN040 TX14/1300Z TN08/1206Z TEMPO 1209/1218 23015G25KT TEMPO 1209/1303 3000 RA BECMG 1215/1219 28015KT TEMPO 1215/1224 1500 +RA BKN012 TEMPO 1218/1306 28020G30KT PROB40 TEMPO 1300/1306 28030G40KT